Time;durP1;ratioP1;P1;durP2;ratioP2;P2;SDS_P1;SDS_P2;PMS_P1;PMS_P2;Temp;Humidity;BMP_temperature;BMP_pressure;BME280_temperature;BME280_humidity;BME280_pressure;Samples;Min_cycle;Max_cycle;Signal;HPM_P1;HPM_P2
2022/02/11 00:01:15;;;;;;;;;;;;;;;9.79;68.45;101699.44;5049650;27;102592;-50
2022/02/11 00:08:48;;;;;;;;;;;;;;;9.79;67.92;101694.00;5041392;27;103874;-50
2022/02/11 00:11:18;;;;;;;;;;;;;;;9.80;68.71;101683.94;5054036;27;102228;-50
2022/02/11 00:13:44;;;;;;;;;;;;;;;9.79;68.07;101687.75;5047088;27;102648;-50
2022/02/11 00:16:10;;;;;;;;;;;;;;;9.78;68.66;101681.47;5047284;27;102242;-50
2022/02/11 00:18:37;;;;;;;;;;;;;;;9.79;68.39;101677.69;5049041;27;103742;-49
2022/02/11 00:21:03;;;;;;;;;;;;;;;9.78;68.36;101678.75;5035202;27;102819;-51
2022/02/11 00:23:31;;;;;;;;;;;;;;;9.78;67.80;101686.91;5044704;27;103523;-50
2022/02/11 00:26:02;;;;;;;;;;;;;;;9.78;68.52;101680.66;5048764;27;102248;-50
2022/02/11 00:31:34;;;;;;;;;;;;;;;9.78;68.16;101680.66;5048352;27;102820;-50
2022/02/11 00:33:56;;;;;;;;;;;;;;;9.78;67.84;101684.19;5055443;27;105454;-49
2022/02/11 00:36:27;;;;;;;;;;;;;;;9.79;68.68;101676.88;5057186;27;102574;-50
2022/02/11 01:05:58;;;;;;;;;;;;;;;9.77;68.43;101625.47;5047305;27;102146;-50
2022/02/11 01:08:26;;;;;;;;;;;;;;;9.77;67.95;101619.19;5041004;27;102443;-50
2022/02/11 01:10:53;;;;;;;;;;;;;;;9.77;68.03;101605.59;5044192;27;103877;-51
2022/02/11 01:13:19;;;;;;;;;;;;;;;9.77;68.04;101611.88;5053915;27;102880;-50
2022/02/11 01:15:55;;;;;;;;;;;;;;;9.77;68.52;101609.16;5048252;27;102573;-50
2022/02/11 01:18:21;;;;;;;;;;;;;;;9.77;68.42;101601.00;5047280;27;102564;-50
2022/02/11 01:20:52;;;;;;;;;;;;;;;9.76;68.34;101593.91;5041079;27;103812;-50
2022/02/11 01:28:21;;;;;;;;;;;;;;;9.77;68.17;101592.84;5049636;27;102409;-50
2022/02/11 01:31:02;;;;;;;;;;;;;;;9.76;68.16;101583.03;5058663;27;103862;-50
2022/02/11 01:33:54;;;;;;;;;;;;;;;9.77;68.00;101578.41;5043627;27;104086;-54
2022/02/11 01:45:04;;;;;;;;;;;;;;;9.76;68.49;101569.44;5045294;27;102429;-49
2022/02/11 01:48:35;;;;;;;;;;;;;;;9.76;68.01;101558.56;5044716;27;102450;-49
2022/02/11 02:11:28;;;;;;;;;;;;;;;9.77;68.03;101554.78;5044589;27;103055;-49
2022/02/11 02:32:49;;;;;;;;;;;;;;;9.77;67.88;101557.50;5055836;27;102911;-49
2022/02/11 03:49:24;;;;;;;;;;;;;;;9.77;68.08;101532.19;5055927;27;102806;-49
2022/02/11 04:56:35;;;;;;;;;;;;;;;9.76;68.53;101542.25;5040541;27;103881;-49
2022/02/11 05:01:45;;;;;;;;;;;;;;;9.76;68.36;101531.38;5048497;27;102677;-49
2022/02/11 05:04:11;;;;;;;;;;;;;;;9.76;68.48;101530.56;5046827;27;102374;-49
2022/02/11 05:06:37;;;;;;;;;;;;;;;9.76;68.12;101531.38;5040288;27;103828;-49
2022/02/11 05:09:05;;;;;;;;;;;;;;;9.76;68.60;101528.66;5036278;27;102387;-49
2022/02/11 05:11:31;;;;;;;;;;;;;;;9.76;68.27;101536.81;5038939;27;102579;-49
2022/02/11 05:13:57;;;;;;;;;;;;;;;9.76;68.24;101531.38;5052911;27;102189;-49
2022/02/11 05:16:23;;;;;;;;;;;;;;;9.77;68.56;101527.59;5061740;27;103888;-49
2022/02/11 05:18:50;;;;;;;;;;;;;;;9.76;68.38;101531.38;5039170;27;102152;-49
2022/02/11 05:21:16;;;;;;;;;;;;;;;9.76;68.37;101528.66;5040216;27;102649;-49
2022/02/11 05:23:42;;;;;;;;;;;;;;;9.77;68.42;101548.50;5043575;27;103972;-49
2022/02/11 05:26:09;;;;;;;;;;;;;;;9.77;68.04;101549.34;5043180;27;103883;-49
2022/02/11 05:28:35;;;;;;;;;;;;;;;9.77;68.12;101548.50;5045489;27;102408;-49
2022/02/11 05:31:01;;;;;;;;;;;;;;;9.77;68.40;101543.06;5042767;27;102529;-49
2022/02/11 05:33:29;;;;;;;;;;;;;;;9.77;67.86;101557.50;5045668;27;102389;-50
2022/02/11 05:35:55;;;;;;;;;;;;;;;9.76;68.41;101558.56;5046886;27;103706;-49
2022/02/11 05:38:21;;;;;;;;;;;;;;;9.76;68.65;101550.41;5042712;27;102544;-49
2022/02/11 05:40:47;;;;;;;;;;;;;;;9.77;68.28;101548.50;5040871;27;104084;-49
2022/02/11 05:43:15;;;;;;;;;;;;;;;9.77;68.13;101549.34;5041080;27;102235;-49
2022/02/11 05:45:42;;;;;;;;;;;;;;;9.76;68.34;101542.25;5048671;27;103951;-49
2022/02/11 05:48:09;;;;;;;;;;;;;;;9.77;67.99;101535.75;5044112;27;102722;-49
2022/02/11 05:50:35;;;;;;;;;;;;;;;9.78;68.03;101537.41;5039835;27;102637;-49
2022/02/11 05:53:01;;;;;;;;;;;;;;;9.78;68.20;101539.31;5050111;27;102608;-49
2022/02/11 05:55:27;;;;;;;;;;;;;;;9.78;68.45;101536.59;5050811;27;103886;-49
2022/02/11 05:57:53;;;;;;;;;;;;;;;9.78;68.61;101545.56;5048715;27;102522;-49
2022/02/11 06:00:21;;;;;;;;;;;;;;;9.78;68.73;101536.59;5046256;27;105291;-49
2022/02/11 06:02:47;;;;;;;;;;;;;;;9.79;68.46;101551.81;5049762;27;102420;-49
2022/02/11 06:05:16;;;;;;;;;;;;;;;9.78;68.42;101551.00;5044750;27;103988;-49
2022/02/11 06:07:43;;;;;;;;;;;;;;;9.79;67.86;101547.19;5056831;27;102186;-49
2022/02/11 06:10:09;;;;;;;;;;;;;;;9.79;68.67;101546.38;5045973;27;102425;-49
2022/02/11 06:12:37;;;;;;;;;;;;;;;9.80;68.78;101543.41;5045104;27;102493;-48
2022/02/11 06:15:04;;;;;;;;;;;;;;;9.80;68.60;101548.84;5047026;27;103952;-48
2022/02/11 06:17:35;;;;;;;;;;;;;;;9.81;67.94;101555.94;5050944;27;102306;-49
2022/02/11 06:20:02;;;;;;;;;;;;;;;9.81;68.48;101555.94;5043959;27;102319;-49
2022/02/11 06:22:28;;;;;;;;;;;;;;;9.83;68.50;101561.13;5053037;27;102863;-50
2022/02/11 06:24:55;;;;;;;;;;;;;;;9.83;68.26;101548.34;5045174;27;103948;-49
2022/02/11 06:27:21;;;;;;;;;;;;;;;9.83;68.71;101559.22;5045702;27;102920;-48
2022/02/11 06:29:47;;;;;;;;;;;;;;;9.83;68.15;101552.97;5043935;27;102461;-49
2022/02/11 06:32:13;;;;;;;;;;;;;;;9.83;68.49;101542.91;5046157;27;102321;-49
2022/02/11 06:34:40;;;;;;;;;;;;;;;9.85;68.50;101561.72;5050205;27;103803;-49
2022/02/11 06:37:07;;;;;;;;;;;;;;;9.83;68.85;101545.63;5049096;27;102359;-48
2022/02/11 06:39:33;;;;;;;;;;;;;;;9.84;68.43;101539.16;5050745;27;102586;-49
2022/02/11 06:41:59;;;;;;;;;;;;;;;9.85;68.69;101545.41;5046545;27;102290;-49
2022/02/11 06:44:26;;;;;;;;;;;;;;;9.85;68.20;101545.41;5038812;27;103861;-51
2022/02/11 06:46:52;;;;;;;;;;;;;;;9.85;68.24;101535.34;5036519;27;102398;-49
2022/02/11 06:49:22;;;;;;;;;;;;;;;9.85;68.33;101546.22;5042325;27;102261;-50
2022/02/11 06:51:49;;;;;;;;;;;;;;;9.86;68.23;101545.16;5048967;27;102742;-48
2022/02/11 06:54:15;;;;;;;;;;;;;;;9.86;68.54;101542.41;5046662;27;103860;-49
2022/02/11 06:56:41;;;;;;;;;;;;;;;9.86;68.04;101537.00;5046159;27;102457;-48
2022/02/11 06:59:07;;;;;;;;;;;;;;;9.87;68.38;101532.38;5053014;27;102506;-49
2022/02/11 07:01:34;;;;;;;;;;;;;;;9.86;68.48;101534.25;5045192;27;102242;-49
2022/02/11 07:04:00;;;;;;;;;;;;;;;9.87;68.32;101533.19;5047294;27;103682;-49
2022/02/11 07:06:26;;;;;;;;;;;;;;;9.87;68.44;101525.03;5056043;27;102704;-49
2022/02/11 07:08:55;;;;;;;;;;;;;;;9.87;68.70;101527.75;5059343;27;105150;-50
2022/02/11 07:11:20;;;;;;;;;;;;;;;9.89;68.41;101532.13;5050872;27;102365;-48
2022/02/11 07:13:47;;;;;;;;;;;;;;;9.90;68.57;101531.06;5050394;27;103844;-49
2022/02/11 07:16:15;;;;;;;;;;;;;;;9.90;68.52;101525.63;5047518;27;102209;-50
2022/02/11 07:18:42;;;;;;;;;;;;;;;9.90;68.73;101528.34;5044102;27;103486;-48
2022/02/11 07:21:08;;;;;;;;;;;;;;;9.90;68.25;101529.16;5055561;27;102936;-49
2022/02/11 07:23:34;;;;;;;;;;;;;;;9.90;68.62;101526.44;5047910;27;104050;-49
2022/02/11 07:26:02;;;;;;;;;;;;;;;9.91;68.53;101529.97;5046795;27;102815;-48
2022/02/11 07:28:28;;;;;;;;;;;;;;;9.90;68.52;101528.34;5045964;27;105558;-49
2022/02/11 07:30:54;;;;;;;;;;;;;;;9.90;68.19;101522.91;5050719;27;102210;-49
2022/02/11 07:33:20;;;;;;;;;;;;;;;9.90;68.68;101523.72;5045089;27;103876;-49
2022/02/11 07:35:46;;;;;;;;;;;;;;;9.91;68.85;101527.25;5044232;27;102534;-48
2022/02/11 07:38:12;;;;;;;;;;;;;;;9.91;68.18;101535.41;5033656;27;102237;-49
2022/02/11 07:40:39;;;;;;;;;;;;;;;9.90;68.24;101537.31;5036522;27;103462;-48
2022/02/11 07:43:06;;;;;;;;;;;;;;;9.91;68.05;101533.53;5035167;27;104245;-49
2022/02/11 07:45:34;;;;;;;;;;;;;;;9.92;67.93;101534.34;5032592;27;102960;-49
2022/02/11 07:48:00;;;;;;;;;;;;;;;9.91;68.33;101528.09;5040793;27;102562;-49
2022/02/11 07:50:26;;;;;;;;;;;;;;;9.93;68.37;101536.00;5046291;27;102683;-48
2022/02/11 07:52:52;;;;;;;;;;;;;;;9.94;68.47;101537.66;5047281;27;103621;-49
2022/02/11 07:55:18;;;;;;;;;;;;;;;9.93;67.92;101541.44;5047396;27;101979;-49
2022/02/11 07:57:48;;;;;;;;;;;;;;;9.93;68.10;101541.44;5042319;27;102498;-49
2022/02/11 08:00:17;;;;;;;;;;;;;;;9.93;67.99;101541.44;5047389;27;102337;-49
2022/02/11 08:02:43;;;;;;;;;;;;;;;9.94;68.34;101537.66;5047042;27;103975;-49
2022/02/11 08:05:10;;;;;;;;;;;;;;;9.94;67.80;101538.47;5043338;27;102008;-48
2022/02/11 08:07:36;;;;;;;;;;;;;;;9.95;68.29;101528.41;5046644;27;102352;-48
2022/02/11 08:10:02;;;;;;;;;;;;;;;9.96;68.36;101530.09;5037100;27;102859;-48
2022/02/11 08:12:29;;;;;;;;;;;;;;;9.95;68.11;101533.84;5043968;27;104023;-50
2022/02/11 08:14:55;;;;;;;;;;;;;;;9.96;67.99;101527.34;5039078;27;102489;-49
2022/02/11 08:17:23;;;;;;;;;;;;;;;9.96;67.97;101532.81;5042311;27;103053;-49
2022/02/11 08:19:49;;;;;;;;;;;;;;;9.97;68.29;101535.25;5058198;27;102168;-48
2022/02/11 08:22:16;;;;;;;;;;;;;;;9.98;68.03;101542.34;5052632;27;103708;-49
2022/02/11 08:24:42;;;;;;;;;;;;;;;9.99;67.73;101535.84;5049039;27;102259;-49
2022/02/11 08:27:09;;;;;;;;;;;;;;;10.01;67.71;101530.16;5041890;27;102621;-48
2022/02/11 08:29:35;;;;;;;;;;;;;;;10.01;68.30;101527.44;5046320;27;102282;-51
2022/02/11 08:32:01;;;;;;;;;;;;;;;10.01;68.28;101522.00;5048751;27;102957;-49
2022/02/11 08:34:28;;;;;;;;;;;;;;;10.02;68.06;101523.63;5050472;27;103549;-49
2022/02/11 08:36:54;;;;;;;;;;;;;;;10.02;67.89;101512.75;5044843;27;102829;-48
2022/02/11 08:39:20;;;;;;;;;;;;;;;10.02;67.93;101507.31;5049582;27;102464;-49
2022/02/11 08:41:48;;;;;;;;;;;;;;;10.04;67.78;101505.19;5047425;27;103972;-48
2022/02/11 08:44:14;;;;;;;;;;;;;;;10.03;68.07;101507.09;5048602;27;102486;-49
2022/02/11 08:46:40;;;;;;;;;;;;;;;10.04;68.32;101511.44;5065393;27;102404;-49
2022/02/11 08:49:06;;;;;;;;;;;;;;;10.05;67.92;101517.69;5050136;27;102201;-49
2022/02/11 08:51:34;;;;;;;;;;;;;;;10.05;68.10;101512.25;5046726;27;103921;-49
2022/02/11 08:54:00;;;;;;;;;;;;;;;10.06;68.11;101511.19;5040662;27;102522;-49
2022/02/11 08:56:28;;;;;;;;;;;;;;;10.07;68.53;101515.56;5046031;27;102454;-49
2022/02/11 08:58:55;;;;;;;;;;;;;;;10.08;67.88;101514.50;5048169;27;102749;-49
2022/02/11 09:01:20;;;;;;;;;;;;;;;10.08;68.26;101517.22;5041906;27;102978;-49
2022/02/11 09:03:46;;;;;;;;;;;;;;;10.08;68.26;101515.31;5045385;27;102522;-49
2022/02/11 09:06:12;;;;;;;;;;;;;;;10.09;68.33;101518.84;5049464;27;102429;-49
2022/02/11 09:08:40;;;;;;;;;;;;;;;10.10;67.94;101515.06;5048987;27;102392;-49
2022/02/11 09:11:12;;;;;;;;;;;;;;;10.10;67.76;101510.47;5044832;27;103889;-49
2022/02/11 09:13:38;;;;;;;;;;;;;;;10.12;68.37;101512.91;5046507;27;102585;-49
2022/02/11 09:16:04;;;;;;;;;;;;;;;10.11;68.20;101511.28;5058488;27;102587;-50
2022/02/11 09:18:30;;;;;;;;;;;;;;;10.12;67.87;101512.91;5041967;27;102742;-48
2022/02/11 09:20:58;;;;;;;;;;;;;;;10.11;67.74;101509.38;5041340;27;103962;-49
2022/02/11 09:23:25;;;;;;;;;;;;;;;10.14;68.27;101515.41;5040822;27;104123;-49
2022/02/11 09:25:52;;;;;;;;;;;;;;;10.14;67.65;101513.50;5040586;27;102620;-49
2022/02/11 09:28:19;;;;;;;;;;;;;;;10.15;68.28;101509.69;5045976;27;102247;-49
2022/02/11 09:30:45;;;;;;;;;;;;;;;10.15;68.10;101509.69;5046033;27;104107;-49
2022/02/11 09:33:12;;;;;;;;;;;;;;;10.16;68.06;101511.34;5039160;27;102672;-49
2022/02/11 09:35:39;;;;;;;;;;;;;;;10.17;68.19;101510.28;5050273;27;102646;-48
2022/02/11 09:38:05;;;;;;;;;;;;;;;10.19;67.95;101508.13;5052490;27;102635;-49
2022/02/11 09:40:35;;;;;;;;;;;;;;;10.18;68.52;101501.03;5040999;27;103866;-49
2022/02/11 09:43:03;;;;;;;;;;;;;;;10.20;68.08;101503.50;5040282;27;103020;-48
2022/02/11 09:45:29;;;;;;;;;;;;;;;10.21;68.01;101506.00;5047255;27;102486;-49
2022/02/11 09:47:55;;;;;;;;;;;;;;;10.23;68.04;101505.72;5033924;27;102214;-49
2022/02/11 09:50:22;;;;;;;;;;;;;;;10.24;68.07;101499.22;5045937;27;103903;-49
2022/02/11 09:52:49;;;;;;;;;;;;;;;10.24;68.34;101500.06;5049476;27;102178;-49
2022/02/11 09:55:34;;;;;;;;;;;;;;;10.24;68.23;101494.63;5041203;27;102423;-50
2022/02/11 09:58:00;;;;;;;;;;;;;;;10.25;67.84;101485.41;5044090;27;102652;-49
2022/02/11 10:00:28;;;;;;;;;;;;;;;10.26;68.33;101487.03;5040873;27;103843;-49
2022/02/11 10:02:55;;;;;;;;;;;;;;;10.26;68.55;101481.59;5042904;27;102211;-49
2022/02/11 10:05:22;;;;;;;;;;;;;;;10.27;67.99;101476.97;5040605;27;102554;-49
2022/02/11 10:07:49;;;;;;;;;;;;;;;10.28;68.26;101479.47;5041210;27;102536;-49
2022/02/11 10:10:18;;;;;;;;;;;;;;;10.28;68.09;101476.75;5031662;27;103998;-49
2022/02/11 10:12:44;;;;;;;;;;;;;;;10.29;68.10;101469.41;5040713;27;102510;-49
2022/02/11 10:15:18;;;;;;;;;;;;;;;10.30;68.42;101471.88;5042149;27;102398;-48
2022/02/11 10:17:45;;;;;;;;;;;;;;;10.29;68.02;101470.22;5040474;27;102895;-48
2022/02/11 10:20:12;;;;;;;;;;;;;;;10.31;67.98;101467.25;5037438;27;103279;-48
2022/02/11 10:22:38;;;;;;;;;;;;;;;10.31;67.65;101467.25;5037036;27;102804;-50
2022/02/11 10:25:04;;;;;;;;;;;;;;;10.30;68.45;101460.16;5040355;27;102394;-48
2022/02/11 10:27:32;;;;;;;;;;;;;;;10.30;68.52;101455.53;5043794;27;102674;-49
2022/02/11 10:29:59;;;;;;;;;;;;;;;10.32;67.94;101460.75;5041628;27;103934;-49
2022/02/11 10:32:38;;;;;;;;;;;;;;;10.32;67.96;101456.13;5042439;27;102646;-48
2022/02/11 10:35:06;;;;;;;;;;;;;;;10.31;68.17;101451.75;5042673;27;103797;-49
2022/02/11 10:37:33;;;;;;;;;;;;;;;10.33;68.15;101452.31;5046050;27;102318;-49
2022/02/11 10:40:00;;;;;;;;;;;;;;;10.32;68.13;101441.69;5044601;27;103890;-49
2022/02/11 10:42:42;;;;;;;;;;;;;;;10.32;67.93;101442.53;5043815;27;102533;-49
2022/02/11 10:45:31;;;;;;;;;;;;;;;10.32;68.12;101442.53;5040540;27;102041;-49
2022/02/11 10:48:07;;;;;;;;;;;;;;;10.32;68.22;101431.63;5044921;27;102658;-49
2022/02/11 10:50:34;;;;;;;;;;;;;;;10.33;67.84;101427.00;5042552;27;103708;-49
2022/02/11 10:53:01;;;;;;;;;;;;;;;10.32;68.42;101426.19;5043071;27;104803;-49
2022/02/11 10:55:28;;;;;;;;;;;;;;;10.32;68.22;101426.19;5049471;27;102861;-50
2022/02/11 10:57:59;;;;;;;;;;;;;;;10.33;67.94;101425.13;5048173;27;102578;-49
2022/02/11 11:00:26;;;;;;;;;;;;;;;10.32;68.13;101428.91;5045425;27;103880;-49
2022/02/11 11:02:53;;;;;;;;;;;;;;;10.33;68.27;101416.94;5037541;27;102219;-49
2022/02/11 11:05:19;;;;;;;;;;;;;;;10.33;68.24;101421.56;5040953;27;103395;-49
2022/02/11 11:07:47;;;;;;;;;;;;;;;10.31;68.01;101408.22;5046522;27;103279;-49
2022/02/11 11:10:14;;;;;;;;;;;;;;;10.33;68.26;101411.50;5040289;27;103936;-49
2022/02/11 11:12:42;;;;;;;;;;;;;;;10.32;68.22;101407.16;5046742;27;102178;-48
2022/02/11 11:15:08;;;;;;;;;;;;;;;10.32;67.78;101407.16;5032445;27;102806;-49
2022/02/11 11:17:36;;;;;;;;;;;;;;;10.33;67.96;101399.81;5046496;27;102309;-49
2022/02/11 11:20:03;;;;;;;;;;;;;;;10.33;67.96;101399.81;5046844;27;103829;-49
2022/02/11 11:22:33;;;;;;;;;;;;;;;10.31;67.90;101391.91;5043634;27;102605;-49
2022/02/11 11:25:01;;;;;;;;;;;;;;;10.31;67.87;101397.34;5041339;27;102899;-48
2022/02/11 11:27:41;;;;;;;;;;;;;;;10.31;68.19;101397.34;5041526;27;102712;-49
2022/02/11 11:30:20;;;;;;;;;;;;;;;10.31;68.12;101397.34;5040445;27;103817;-49
2022/02/11 11:33:01;;;;;;;;;;;;;;;10.31;67.69;101396.50;5050559;27;102257;-49
2022/02/11 11:35:27;;;;;;;;;;;;;;;10.31;67.82;101388.34;5046637;27;102642;-49
2022/02/11 11:38:08;;;;;;;;;;;;;;;10.30;67.88;101384.81;5051526;27;102686;-48
2022/02/11 11:40:35;;;;;;;;;;;;;;;10.30;67.80;101379.38;5046145;27;108084;-49
2022/02/11 11:43:11;;;;;;;;;;;;;;;10.29;67.75;101377.72;5052222;27;102670;-49
2022/02/11 11:45:39;;;;;;;;;;;;;;;10.30;68.19;101376.63;5045969;27;102469;-49
2022/02/11 11:48:12;;;;;;;;;;;;;;;10.29;67.88;101372.28;5048100;27;102637;-49
2022/02/11 11:50:39;;;;;;;;;;;;;;;10.29;67.93;101369.56;5043195;27;103922;-49
2022/02/11 11:53:21;;;;;;;;;;;;;;;10.29;67.73;101374.19;5045794;27;104614;-49
2022/02/11 11:55:49;;;;;;;;;;;;;;;10.29;67.41;101380.44;5039422;27;102187;-49
2022/02/11 11:58:28;;;;;;;;;;;;;;;10.28;68.11;101370.66;5047481;27;102723;-49
2022/02/11 12:00:58;;;;;;;;;;;;;;;10.28;68.11;101365.22;5040902;27;104071;-48
2022/02/11 12:03:24;;;;;;;;;;;;;;;10.28;68.00;101367.94;5043098;27;102689;-49
2022/02/11 12:05:53;;;;;;;;;;;;;;;10.28;67.53;101359.75;5047356;27;103604;-49
2022/02/11 12:08:20;;;;;;;;;;;;;;;10.28;68.07;101353.50;5048713;27;102209;-49
2022/02/11 12:10:47;;;;;;;;;;;;;;;10.27;67.56;101358.09;5039878;27;104430;-49
2022/02/11 12:13:16;;;;;;;;;;;;;;;10.27;67.78;101352.66;5043344;27;102760;-48
2022/02/11 12:15:42;;;;;;;;;;;;;;;10.27;68.04;101347.22;5051171;27;103540;-48
2022/02/11 12:18:09;;;;;;;;;;;;;;;10.27;67.69;101347.22;5048897;27;102682;-49
2022/02/11 12:20:38;;;;;;;;;;;;;;;10.27;68.12;101351.84;5038773;27;103952;-50
2022/02/11 12:28:53;;;;;;;;;;;;;;;10.26;67.71;101344.75;5023901;27;102264;-48
2022/02/11 12:31:23;;;;;;;;;;;;;;;10.26;67.67;101344.75;5031935;27;103910;-49
2022/02/11 12:33:49;;;;;;;;;;;;;;;10.26;67.35;101348.31;5040784;27;102118;-49
2022/02/11 12:36:15;;;;;;;;;;;;;;;10.26;67.63;101356.47;5040575;27;102214;-48
2022/02/11 12:38:41;;;;;;;;;;;;;;;10.25;67.64;101354.81;5041288;27;104059;-48
2022/02/11 12:41:07;;;;;;;;;;;;;;;10.26;68.01;101356.47;5040775;27;103705;-49
2022/02/11 12:43:33;;;;;;;;;;;;;;;10.25;67.96;101354.81;5040716;27;102634;-49
2022/02/11 12:46:03;;;;;;;;;;;;;;;10.25;67.47;101360.28;5043101;27;102694;-49
2022/02/11 12:48:30;;;;;;;;;;;;;;;10.25;68.15;101354.81;5044150;27;102751;-49
2022/02/11 12:50:57;;;;;;;;;;;;;;;10.25;67.78;101354.81;5041777;27;104508;-49
2022/02/11 12:53:25;;;;;;;;;;;;;;;10.25;67.44;101360.28;5042465;27;102665;-49
2022/02/11 12:55:51;;;;;;;;;;;;;;;10.25;67.85;101363.00;5046905;27;102510;-48
2022/02/11 12:58:21;;;;;;;;;;;;;;;10.25;67.49;101360.28;5043159;27;102953;-49
2022/02/11 13:00:48;;;;;;;;;;;;;;;10.24;67.87;101364.03;5040320;27;104145;-49
2022/02/11 13:03:16;;;;;;;;;;;;;;;10.24;67.66;101374.94;5035641;27;102598;-49
2022/02/11 13:05:45;;;;;;;;;;;;;;;10.25;68.02;101370.31;5037516;27;102757;-49
2022/02/11 13:08:17;;;;;;;;;;;;;;;10.24;67.73;101358.59;5033857;27;102902;-49
2022/02/11 13:10:44;;;;;;;;;;;;;;;10.25;67.76;101354.81;5030411;27;103863;-49
2022/02/11 13:13:13;;;;;;;;;;;;;;;10.24;67.93;101358.59;5037087;27;102619;-48
2022/02/11 13:15:44;;;;;;;;;;;;;;;10.23;67.48;101356.94;5041117;27;102460;-48
2022/02/11 13:18:12;;;;;;;;;;;;;;;10.24;67.20;101353.16;5034179;27;102647;-49
2022/02/11 13:20:40;;;;;;;;;;;;;;;10.24;67.80;101358.59;5040329;27;103503;-49
2022/02/11 13:23:06;;;;;;;;;;;;;;;10.25;67.75;101362.13;5034479;27;104258;-48
2022/02/11 13:25:32;;;;;;;;;;;;;;;10.24;67.71;101357.75;5030528;27;103913;-48
2022/02/11 13:28:04;;;;;;;;;;;;;;;10.23;67.54;101367.81;5037491;27;102613;-48
2022/02/11 13:30:32;;;;;;;;;;;;;;;10.23;67.45;101359.66;5031205;27;104118;-49
2022/02/11 13:32:59;;;;;;;;;;;;;;;10.24;67.77;101371.34;5033597;27;102300;-48
2022/02/11 13:35:25;;;;;;;;;;;;;;;10.24;67.36;101365.91;5041248;27;102789;-49
2022/02/11 13:37:54;;;;;;;;;;;;;;;10.22;67.75;101360.75;5039312;27;102601;-48
2022/02/11 13:40:21;;;;;;;;;;;;;;;10.24;67.35;101357.75;5038379;27;103672;-49
2022/02/11 13:43:09;;;;;;;;;;;;;;;10.23;67.55;101362.38;5037203;27;102678;-48
2022/02/11 13:45:51;;;;;;;;;;;;;;;10.22;67.49;101360.75;5040797;27;102657;-49
2022/02/11 13:48:18;;;;;;;;;;;;;;;10.23;67.59;101362.38;5043629;27;102728;-49
2022/02/11 13:50:57;;;;;;;;;;;;;;;10.23;67.27;101362.38;5036454;27;102985;-48
2022/02/11 13:53:29;;;;;;;;;;;;;;;10.23;67.63;101364.28;5045507;27;106925;-49
2022/02/11 13:55:55;;;;;;;;;;;;;;;10.23;67.56;101356.94;5033631;27;102267;-49
2022/02/11 13:58:21;;;;;;;;;;;;;;;10.23;67.37;101362.38;5042104;27;102588;-52
2022/02/11 14:00:47;;;;;;;;;;;;;;;10.23;67.62;101361.56;5034805;27;104368;-51
2022/02/11 14:03:20;;;;;;;;;;;;;;;10.22;67.50;101354.47;5026316;27;103058;-49
2022/02/11 14:05:47;;;;;;;;;;;;;;;10.22;67.54;101354.47;5034023;27;102311;-48
2022/02/11 14:08:14;;;;;;;;;;;;;;;10.22;67.47;101355.31;5036677;27;102271;-48
2022/02/11 14:10:43;;;;;;;;;;;;;;;10.23;67.74;101356.94;5040398;27;104048;-49
2022/02/11 14:13:09;;;;;;;;;;;;;;;10.22;67.71;101349.03;5039528;27;102602;-49
2022/02/11 14:15:36;;;;;;;;;;;;;;;10.23;67.72;101356.13;5039337;27;102928;-49
2022/02/11 14:18:03;;;;;;;;;;;;;;;10.22;67.57;101358.03;5040809;27;102734;-49
2022/02/11 14:20:30;;;;;;;;;;;;;;;10.22;67.45;101363.47;5044724;27;103738;-49
2022/02/11 14:22:56;;;;;;;;;;;;;;;10.23;67.44;101361.56;5036132;27;102561;-49
2022/02/11 14:25:22;;;;;;;;;;;;;;;10.23;67.50;101370.53;5032069;27;102724;-49
2022/02/11 14:27:49;;;;;;;;;;;;;;;10.22;67.56;101368.91;5041899;27;102705;-48
2022/02/11 14:30:15;;;;;;;;;;;;;;;10.22;67.28;101363.47;5045737;27;103822;-49
2022/02/11 14:32:48;;;;;;;;;;;;;;;10.22;67.27;101366.19;5048916;27;102613;-48
2022/02/11 14:35:14;;;;;;;;;;;;;;;10.22;67.65;101366.19;5038762;27;102472;-48
2022/02/11 14:37:41;;;;;;;;;;;;;;;10.23;67.56;101364.28;5049253;27;102323;-48
2022/02/11 14:40:08;;;;;;;;;;;;;;;10.22;67.24;101368.09;5037964;27;103874;-48
2022/02/11 14:42:34;;;;;;;;;;;;;;;10.22;67.68;101366.19;5045285;27;102659;-49
2022/02/11 14:45:02;;;;;;;;;;;;;;;10.24;67.41;101369.47;5040675;27;103427;-49
2022/02/11 14:47:28;;;;;;;;;;;;;;;10.22;67.56;101366.19;5036320;27;102996;-49
2022/02/11 14:49:54;;;;;;;;;;;;;;;10.23;67.33;101373.25;5043442;27;106759;-48
2022/02/11 14:52:20;;;;;;;;;;;;;;;10.24;67.81;101374.06;5044464;27;103597;-49
2022/02/11 14:54:46;;;;;;;;;;;;;;;10.23;67.64;101384.13;5043737;27;102103;-50
2022/02/11 14:57:13;;;;;;;;;;;;;;;10.22;67.35;101377.06;5048573;27;103598;-49
2022/02/11 14:59:39;;;;;;;;;;;;;;;10.23;67.40;101381.41;5040905;27;103735;-48
2022/02/11 15:02:07;;;;;;;;;;;;;;;10.23;67.76;101384.13;5037684;27;102605;-48
2022/02/11 15:04:33;;;;;;;;;;;;;;;10.24;67.57;101384.97;5040134;27;102928;-48
2022/02/11 15:10:22;;;;;;;;;;;;;;;10.24;67.73;101390.41;5037533;27;103965;-49
2022/02/11 15:12:48;;;;;;;;;;;;;;;10.24;67.77;101391.25;5035851;27;102613;-49
2022/02/11 15:15:14;;;;;;;;;;;;;;;10.23;67.67;101400.47;5037777;27;102380;-49
2022/02/11 15:17:42;;;;;;;;;;;;;;;10.23;67.42;101397.75;5046381;27;102568;-49
2022/02/11 15:20:09;;;;;;;;;;;;;;;10.23;67.81;101403.19;5032865;27;103936;-49
2022/02/11 15:22:35;;;;;;;;;;;;;;;10.23;67.43;101411.34;5038377;27;103750;-49
2022/02/11 15:25:01;;;;;;;;;;;;;;;10.23;67.91;101405.91;5042612;27;102622;-49
2022/02/11 15:27:28;;;;;;;;;;;;;;;10.23;67.95;101416.78;5041255;27;103310;-49
2022/02/11 15:29:54;;;;;;;;;;;;;;;10.23;67.87;101422.22;5040244;27;103977;-50
2022/02/11 15:32:20;;;;;;;;;;;;;;;10.23;67.89;101416.78;5041389;27;102863;-50
2022/02/11 15:34:47;;;;;;;;;;;;;;;10.22;67.93;101420.59;5038620;27;102517;-50
2022/02/11 15:37:16;;;;;;;;;;;;;;;10.23;67.50;101427.66;5046000;27;102516;-50
2022/02/11 15:39:42;;;;;;;;;;;;;;;10.23;67.40;101432.28;5037913;27;104000;-49
2022/02/11 15:42:08;;;;;;;;;;;;;;;10.23;67.72;101433.09;5038798;27;102078;-50
2022/02/11 15:44:34;;;;;;;;;;;;;;;10.24;67.47;101432.06;5037771;27;102470;-50
2022/02/11 15:47:00;;;;;;;;;;;;;;;10.22;67.50;101436.91;5037646;27;102498;-48
2022/02/11 15:49:26;;;;;;;;;;;;;;;10.23;67.67;101433.09;5033618;27;103896;-50
2022/02/11 15:51:53;;;;;;;;;;;;;;;10.24;67.70;101433.91;5037078;27;102936;-49
2022/02/11 15:54:19;;;;;;;;;;;;;;;10.23;67.87;101438.53;5040286;27;102462;-49
2022/02/11 15:56:46;;;;;;;;;;;;;;;10.23;67.63;101438.53;5038335;27;102713;-50
2022/02/11 15:59:12;;;;;;;;;;;;;;;10.23;67.92;101438.53;5041215;27;103953;-50
2022/02/11 16:01:38;;;;;;;;;;;;;;;10.23;68.01;101437.72;5040373;27;102401;-49
2022/02/11 16:04:06;;;;;;;;;;;;;;;10.23;67.67;101449.41;5041810;27;102487;-50
2022/02/11 16:06:32;;;;;;;;;;;;;;;10.23;67.95;101441.25;5038815;27;106682;-49
2022/02/11 16:09:00;;;;;;;;;;;;;;;10.22;68.13;101445.06;5033511;27;103983;-49
2022/02/11 16:11:26;;;;;;;;;;;;;;;10.23;67.82;101443.97;5037730;27;103807;-49
2022/02/11 16:13:53;;;;;;;;;;;;;;;10.23;67.70;101448.59;5031653;27;103627;-49
2022/02/11 16:16:20;;;;;;;;;;;;;;;10.23;68.22;101459.47;5042576;27;102339;-49
2022/02/11 16:18:46;;;;;;;;;;;;;;;10.23;67.63;101448.59;5044598;27;103893;-49
2022/02/11 16:21:12;;;;;;;;;;;;;;;10.23;68.21;101452.16;5045840;27;102591;-50
2022/02/11 16:23:40;;;;;;;;;;;;;;;10.23;67.75;101451.31;5040615;27;102173;-49
2022/02/11 16:26:09;;;;;;;;;;;;;;;10.23;67.74;101462.22;5049542;27;102606;-49
2022/02/11 16:28:35;;;;;;;;;;;;;;;10.22;67.71;101464.09;5041716;27;104040;-49
2022/02/11 16:31:17;;;;;;;;;;;;;;;10.22;67.59;101464.09;5054061;27;102735;-50
2022/02/11 16:33:43;;;;;;;;;;;;;;;10.22;67.49;101461.38;5043794;27;102351;-50